createdAt,value
2022-08-26T11:04:23.581Z,5.45
2022-08-26T11:07:43.024Z,4.93
2022-08-26T11:10:42.331Z,5.03
2022-08-26T11:12:35.584Z,4.83
2022-08-26T11:14:10.458Z,4.90
2022-08-26T11:15:56.348Z,4.97
2022-08-26T11:17:46.279Z,4.78
2022-08-26T11:19:45.357Z,5.15
2022-08-26T11:21:59.304Z,5.10
2022-08-26T11:23:33.614Z,5.10
2022-08-26T11:25:08.602Z,5.40
2022-08-26T11:26:56.128Z,4.95
2022-08-26T11:49:15.633Z,6.55
2022-08-26T11:50:57.563Z,6.60
2022-08-26T11:52:29.371Z,6.88
2022-08-26T11:54:30.765Z,7.00
2022-08-26T11:56:17.944Z,7.10
2022-08-26T11:57:57.035Z,7.47
2022-08-26T11:59:38.708Z,7.53
2022-08-26T12:01:12.284Z,7.47
2022-08-26T12:02:43.955Z,7.43
2022-08-26T12:04:31.019Z,7.90
2022-08-26T12:06:03.597Z,8.00
2022-08-26T12:07:35.319Z,7.72
2022-08-26T12:09:10.659Z,7.50
2022-08-26T12:10:42.376Z,7.88
2022-08-26T12:12:16.356Z,7.28
2022-08-26T12:14:07.301Z,7.38
2022-08-26T12:15:39.107Z,7.20
2022-08-26T12:17:15.970Z,8.02
2022-08-26T12:18:47.655Z,7.20
2022-08-26T12:20:32.986Z,7.35
2022-08-26T12:22:09.735Z,7.80
2022-08-26T12:23:41.421Z,7.23
2022-08-26T12:25:13.505Z,7.00
2022-08-26T12:26:45.817Z,7.53
2022-08-26T12:28:17.818Z,7.57
2022-08-26T12:30:12.453Z,7.65
2022-08-26T12:31:45.985Z,7.60
2022-08-26T12:33:22.822Z,7.63
2022-08-26T12:34:55.210Z,7.70
2022-08-26T12:36:29.511Z,7.47
2022-08-26T12:38:01.218Z,7.47
2022-08-26T12:39:34.933Z,7.20
2022-08-26T12:41:06.660Z,7.28
2022-08-26T12:42:42.002Z,7.00
2022-08-26T12:44:36.858Z,7.70
2022-08-26T12:46:11.044Z,7.10
2022-08-26T12:47:44.152Z,7.10
2022-08-26T12:49:18.281Z,7.28
2022-08-26T12:50:50.456Z,6.88
2022-08-26T12:52:24.062Z,7.05
2022-08-26T12:53:55.783Z,7.03
2022-08-26T12:55:33.063Z,7.18
2022-08-26T12:57:11.659Z,7.45
2022-08-26T12:58:43.350Z,6.90
2022-08-26T13:00:36.040Z,7.30
2022-08-26T13:02:07.910Z,7.28
2022-08-26T13:03:43.548Z,6.65
2022-08-26T13:05:41.666Z,7.00
2022-08-26T13:07:24.715Z,6.88
2022-08-26T13:09:04.673Z,7.43
2022-08-26T13:10:37.991Z,7.27
2022-08-26T13:12:09.684Z,6.88
2022-08-26T13:13:41.343Z,6.57
2022-08-26T13:15:13.042Z,6.63
2022-08-26T13:16:44.842Z,6.78
2022-08-26T13:18:16.529Z,6.27
2022-08-26T13:19:48.256Z,6.70
2022-08-26T13:21:22.057Z,7.00
2022-08-26T13:22:58.695Z,6.30
2022-08-26T13:24:35.971Z,6.20
2022-08-26T13:26:07.634Z,6.03
2022-08-26T13:27:39.367Z,6.35
2022-08-26T13:29:11.214Z,6.20
2022-08-26T13:30:44.585Z,5.95
2022-08-26T13:32:16.272Z,6.40
2022-08-26T13:33:47.979Z,5.77
2022-08-26T13:35:21.091Z,6.30
2022-08-26T13:36:53.460Z,5.90
2022-08-26T13:38:33.172Z,6.10
2022-08-26T13:40:06.237Z,6.13
2022-08-26T13:41:38.072Z,5.80
2022-08-26T13:43:12.847Z,5.70
2022-08-26T13:44:44.789Z,6.10
2022-08-26T13:46:16.485Z,5.95
2022-08-26T13:47:48.512Z,5.82
2022-08-26T13:49:20.179Z,5.80
2022-08-26T13:50:51.874Z,5.65
2022-08-26T13:52:27.254Z,5.40
2022-08-26T13:54:02.903Z,5.45
2022-08-26T13:55:35.872Z,5.78
2022-08-26T13:57:07.576Z,5.78
2022-08-26T13:58:39.258Z,5.63
2022-08-26T14:00:11.703Z,5.93
2022-08-26T14:01:43.442Z,5.72
2022-08-26T14:03:15.148Z,6.45
2022-08-26T14:04:46.809Z,6.00
2022-08-26T14:06:18.507Z,5.47
2022-08-26T14:07:50.161Z,5.90
2022-08-26T14:09:21.803Z,5.97
2022-08-26T14:10:53.558Z,5.28
2022-08-26T14:12:25.217Z,5.82
2022-08-26T14:13:56.874Z,5.40
2022-08-26T14:15:28.660Z,5.35
2022-08-26T14:17:01.066Z,5.38
2022-08-26T14:18:38.392Z,5.65
2022-08-26T14:20:23.824Z,5.40
2022-08-26T14:21:55.583Z,5.50
2022-08-26T14:23:27.343Z,5.20
2022-08-26T14:24:59.082Z,5.32
2022-08-26T14:26:30.718Z,4.63
2022-08-26T14:28:02.423Z,5.32
2022-08-26T14:29:34.100Z,5.00
2022-08-26T14:31:06.155Z,5.35
2022-08-26T14:32:38.926Z,5.15
2022-08-26T14:34:10.583Z,4.75
2022-08-26T14:35:47.366Z,4.53
2022-08-26T14:37:20.747Z,4.82
2022-08-26T14:38:52.481Z,5.05
2022-08-26T14:40:24.495Z,4.72
2022-08-26T14:41:56.031Z,5.18
2022-08-26T14:43:27.697Z,4.80
